Igrejinha, Brazil
Current Conditions -  °F | °C
As of 1:00 PM on Wednesday 22 Oct 2014 (Local Time) from SBCO Reporting Station
Clear Clear  
Wind Chill: 77°   Ceiling: Unl
Heat Index: 78°   Visibility: 6mi
Dew Point: 48°   Wind: 8mph
Humidity: 36%   Direction: 150°SSE
Pressure: 30.15"   Gusts: NA
Location:  29.57°S, 50.79°W
Report Text: SBCO 221500Z 15007KT CAVOK 25/09 Q1021
Loading
Personal Weather Stations






























Interactive Weather Map
Tropical Storm Tracking
New forecast layout! Learn more

10-Day Weather Forecast

Advertisements
Track Severe Weather on mobile